LOWW Airport Information

Runway Information
Runway 11 Length 11483 ft width 148 ft
Elevation 575 ft Threshold 0 ft Heading 116
Runway 29 Length 11483 ft Width 148 ft
Elevation 600 ft Threshold 0 ft Heading 296
Runway 16 Length 11811 ft width 148 ft
Elevation 597 ft Threshold 2953 ft Heading 164
Runway 34 Length 11811 ft Width 148 ft
Elevation 586 ft Threshold 0 ft Heading 344
Airport Frequencies
Type APP Name WIEN RADAR Frequency 128.2 MHZ
Type ATIS Name ATIS Frequency 121.725 MHZ
Type CLD Name WIEN CLNC Frequency 122.125 MHZ
Type DIR Name DIRECTOR Frequency 119.8 MHZ
Type GND Name WIEN GND Frequency 121.6 MHZ
Type INFO Name INFO Frequency 118.525 MHZ
Type RMP Name VIENNA ICE Frequency 131.625 MHZ
Type TWR Name WIEN TWR Frequency 119.4 MHZ
Airport Navaids
Type NDB Name Bruck Frequency 408 KHZ
Type VOR-DME Name Fischamend Frequency 110400 KHZ
Type VOR-DME Name Sollenau Frequency 115500 KHZ
Type NDB Name Steinhof Frequency 293 KHZ
Type VOR-DME Name Wagram Frequency 112200 KHZ
Type NDB Name Schwechat Frequency 303 KHZ
Airport Weather Information & NOTAM
ADDS - METARS form results

(2112 UTC 21 July 2018)
 
METAR text: LOWW 212050Z 16004KT 8000 -RA FEW015 FEW045CB SCT060 BKN120 18/17 Q1011 NOSIG
Conditions at: LOWW (VIENNA/SCHWECHAT, AT) observed 2050 UTC 21 July 2018
Temperature: 18.0°C (64°F)
Dewpoint: 17.0°C (63°F) [RH = 94%]
Pressure (altimeter): 29.85 inches Hg (1011.0 mb)
Winds: from the SSE (160 degrees) at 5 MPH (4 knots; 2.1 m/s)
Visibility: 5 miles (8 km)
Ceiling: 12000 feet AGL
Clouds: few clouds at 1500 feet AGL
few clouds at 4500 feet AGL
scattered clouds at 6000 feet AGL
broken clouds at 12000 feet AGL
Weather: -RA  (light rain)

METAR text: LOWW 212020Z 17005KT 9000 -RA FEW015 FEW045CB SCT060 BKN110 18/18 Q1011 TEMPO FM2100 SHRA
Conditions at: LOWW (VIENNA/SCHWECHAT, AT) observed 2020 UTC 21 July 2018
Temperature: 18.0°C (64°F)
Dewpoint: 18.0°C (64°F) [RH = 100%]
Pressure (altimeter): 29.85 inches Hg (1011.0 mb)
Winds: from the S (170 degrees) at 6 MPH (5 knots; 2.6 m/s)
Visibility: 6 miles (9 km)
Ceiling: 11000 feet AGL
Clouds: few clouds at 1500 feet AGL
few clouds at 4500 feet AGL
scattered clouds at 6000 feet AGL
broken clouds at 11000 feet AGL
Weather: -RA  (light rain)